AFR258 LFPG-VVTS
Flight info
| Callsign | AFR258 |
|---|---|
| Flight time | N/A |
| Altitude | 37000 |
| Route | BUBLI DCT LUVAL DCT LUPEN DCT BATUB DCT MOMUK DCT BERAS T23 BIRGI DCT GOTAR DCT INVED DCT EFJAS DCT UDROS UN743 GAKSU UT310 SIN UN644 ROLIN DCT TETRO DCT BARAD M747 SULEL N449 DUKAN B449 DOLOS B475 NINOP A909 LEMOD N644 DI A466 JHANG M875 LAPAN B209 JJS P646 PTN N895 BETNO G463 BKK N506 ELMOP R468 SAPEN SAPEN5G |
| Aircraft | A359/H-SABDE2E3GHIJ1J2J3J4J5M1P2RWXYZ/LB1D1 |
Departure
| Time | 2026-05-08 19:52 |
|---|---|
| Airport | Charles de Gaulle International Airport (LFPG) |
Arrival
| Time | N/A |
|---|---|
| Airport | Tan Son Nhat International Airport (VVTS) |
| Time | Latitude | Longitude | Altitude | Speed | Heading |
|---|---|---|---|---|---|
| 2026-05-08 19:09 | 49.00760 | 2.58578 | 361 ft | 0 kts | 266° |
| 2026-05-08 19:32 | 49.00761 | 2.58594 | 366 ft | 4 kts | 270° |
| 2026-05-08 19:33 | 49.00758 | 2.58634 | 360 ft | 4 kts | 285° |
| 2026-05-08 19:33 | 49.00748 | 2.58672 | 368 ft | 4 kts | 307° |
| 2026-05-08 19:33 | 49.00730 | 2.58695 | 368 ft | 3 kts | 352° |
| 2026-05-08 19:33 | 49.00727 | 2.58695 | 368 ft | 5 kts | 355° |
| 2026-05-08 19:38 | 49.00736 | 2.58694 | 360 ft | 5 kts | 356° |
| 2026-05-08 19:38 | 49.00747 | 2.58693 | 366 ft | 0 kts | 355° |
| 2026-05-08 19:39 | 49.00749 | 2.58693 | 366 ft | 0 kts | 355° |
| 2026-05-08 19:39 | 49.00761 | 2.58692 | 364 ft | 6 kts | 357° |
| 2026-05-08 19:39 | 49.00807 | 2.58701 | 367 ft | 7 kts | 20° |
| 2026-05-08 19:39 | 49.00840 | 2.58751 | 365 ft | 7 kts | 62° |
| 2026-05-08 19:40 | 49.00855 | 2.58845 | 368 ft | 10 kts | 83° |
| 2026-05-08 19:40 | 49.00864 | 2.58953 | 367 ft | 11 kts | 85° |
| 2026-05-08 19:40 | 49.00870 | 2.59073 | 368 ft | 13 kts | 86° |
| 2026-05-08 19:40 | 49.00877 | 2.59211 | 366 ft | 13 kts | 86° |
| 2026-05-08 19:41 | 49.00881 | 2.59316 | 369 ft | 7 kts | 89° |
| 2026-05-08 19:41 | 49.00860 | 2.59377 | 369 ft | 6 kts | 143° |
| 2026-05-08 19:41 | 49.00815 | 2.59403 | 368 ft | 7 kts | 165° |
| 2026-05-08 19:41 | 49.00751 | 2.59416 | 360 ft | 10 kts | 174° |
| 2026-05-08 19:42 | 49.00675 | 2.59426 | 363 ft | 11 kts | 175° |
| 2026-05-08 19:42 | 49.00583 | 2.59438 | 367 ft | 16 kts | 175° |
| 2026-05-08 19:42 | 49.00456 | 2.59455 | 366 ft | 21 kts | 175° |
| 2026-05-08 19:42 | 49.00299 | 2.59474 | 363 ft | 23 kts | 175° |
| 2026-05-08 19:43 | 49.00168 | 2.59490 | 362 ft | 17 kts | 176° |
| 2026-05-08 19:43 | 49.00091 | 2.59470 | 368 ft | 11 kts | 219° |
| 2026-05-08 19:43 | 49.00068 | 2.59367 | 366 ft | 11 kts | 262° |
| 2026-05-08 19:43 | 49.00061 | 2.59249 | 366 ft | 12 kts | 265° |
| 2026-05-08 19:44 | 49.00056 | 2.59121 | 366 ft | 12 kts | 265° |
| 2026-05-08 19:44 | 49.00048 | 2.58985 | 366 ft | 13 kts | 264° |
| 2026-05-08 19:44 | 49.00039 | 2.58835 | 360 ft | 15 kts | 265° |
| 2026-05-08 19:44 | 49.00030 | 2.58676 | 364 ft | 15 kts | 265° |
| 2026-05-08 19:45 | 49.00022 | 2.58509 | 363 ft | 16 kts | 266° |
| 2026-05-08 19:45 | 49.00014 | 2.58338 | 366 ft | 17 kts | 265° |
| 2026-05-08 19:45 | 49.00004 | 2.58161 | 364 ft | 17 kts | 265° |
| 2026-05-08 19:45 | 48.99994 | 2.57980 | 364 ft | 17 kts | 265° |
| 2026-05-08 19:46 | 48.99984 | 2.57793 | 365 ft | 18 kts | 265° |
| 2026-05-08 19:46 | 48.99974 | 2.57602 | 364 ft | 18 kts | 265° |
| 2026-05-08 19:46 | 48.99952 | 2.57209 | 366 ft | 18 kts | 264° |
| 2026-05-08 19:47 | 48.99942 | 2.57016 | 366 ft | 19 kts | 265° |
| 2026-05-08 19:47 | 48.99931 | 2.56818 | 360 ft | 19 kts | 265° |
| 2026-05-08 19:47 | 48.99922 | 2.56631 | 362 ft | 17 kts | 265° |
| 2026-05-08 19:47 | 48.99912 | 2.56448 | 366 ft | 18 kts | 265° |
| 2026-05-08 19:48 | 48.99903 | 2.56273 | 366 ft | 17 kts | 265° |
| 2026-05-08 19:48 | 48.99895 | 2.56137 | 365 ft | 10 kts | 265° |
| 2026-05-08 19:48 | 48.99879 | 2.56049 | 369 ft | 8 kts | 232° |
| 2026-05-08 19:48 | 48.99826 | 2.56023 | 368 ft | 8 kts | 181° |
| 2026-05-08 19:49 | 48.99771 | 2.56026 | 365 ft | 7 kts | 176° |
| 2026-05-08 19:49 | 48.99746 | 2.56029 | 364 ft | 0 kts | 176° |
| 2026-05-08 19:49 | 48.99743 | 2.56029 | 364 ft | 4 kts | 176° |
| 2026-05-08 19:50 | 48.99681 | 2.56036 | 368 ft | 9 kts | 175° |
| 2026-05-08 19:50 | 48.99626 | 2.56074 | 368 ft | 8 kts | 126° |
| 2026-05-08 19:50 | 48.99618 | 2.56158 | 367 ft | 9 kts | 86° |
| 2026-05-08 19:50 | 48.99619 | 2.56176 | 364 ft | 0 kts | 86° |
| 2026-05-08 19:51 | 48.99630 | 2.56404 | 368 ft | 50 kts | 85° |
| 2026-05-08 19:51 | 48.99674 | 2.57224 | 362 ft | 103 kts | 85° |
| 2026-05-08 19:51 | 48.99745 | 2.58554 | 363 ft | 148 kts | 85° |
| 2026-05-08 19:51 | 48.99847 | 2.60269 | 642 ft | 160 kts | 83° |
| 2026-05-08 19:52 | 48.99940 | 2.61886 | 1278 ft | 154 kts | 84° |
| 2026-05-08 19:52 | 49.00022 | 2.63547 | 1701 ft | 160 kts | 85° |
| 2026-05-08 19:52 | 49.00106 | 2.65237 | 2202 ft | 160 kts | 85° |
| 2026-05-08 19:52 | 49.00193 | 2.66943 | 2634 ft | 164 kts | 85° |
| 2026-05-08 19:53 | 49.00283 | 2.68687 | 3076 ft | 166 kts | 86° |
| 2026-05-08 19:53 | 49.00375 | 2.70442 | 3459 ft | 168 kts | 85° |
| 2026-05-08 19:53 | 49.00473 | 2.72279 | 3660 ft | 181 kts | 86° |
| 2026-05-08 19:53 | 49.00574 | 2.74268 | 3844 ft | 196 kts | 86° |
| 2026-05-08 19:54 | 49.00668 | 2.76432 | 4004 ft | 214 kts | 89° |
| 2026-05-08 19:54 | 49.00553 | 2.78777 | 4202 ft | 231 kts | 98° |
| 2026-05-08 19:54 | 49.00310 | 2.81289 | 4441 ft | 248 kts | 99° |
| 2026-05-08 19:54 | 49.00132 | 2.83036 | 4668 ft | 256 kts | 99° |
| 2026-05-08 19:55 | 48.99763 | 2.86677 | 5360 ft | 263 kts | 99° |
| 2026-05-08 19:55 | 48.99484 | 2.89453 | 5916 ft | 268 kts | 99° |
| 2026-05-08 19:55 | 48.99199 | 2.92290 | 6475 ft | 274 kts | 99° |
| 2026-05-08 19:55 | 48.98868 | 2.95162 | 7031 ft | 277 kts | 105° |
| 2026-05-08 19:56 | 48.98211 | 2.97932 | 7627 ft | 280 kts | 115° |
| 2026-05-08 19:56 | 48.97686 | 2.99730 | 8049 ft | 282 kts | 116° |
| 2026-05-08 19:56 | 48.96863 | 3.02470 | 8634 ft | 286 kts | 116° |
| 2026-05-08 19:56 | 48.96032 | 3.05239 | 9266 ft | 290 kts | 116° |
| 2026-05-08 19:57 | 48.95189 | 3.08058 | 9897 ft | 295 kts | 117° |
| 2026-05-08 19:57 | 48.94331 | 3.10931 | 10339 ft | 304 kts | 117° |
| 2026-05-08 19:57 | 48.93433 | 3.13935 | 10612 ft | 320 kts | 116° |
| 2026-05-08 19:57 | 48.92488 | 3.17096 | 10888 ft | 336 kts | 116° |
| 2026-05-08 19:58 | 48.91501 | 3.20403 | 11161 ft | 351 kts | 116° |
| 2026-05-08 19:58 | 48.90468 | 3.23858 | 11436 ft | 366 kts | 116° |
| 2026-05-08 19:58 | 48.89397 | 3.27440 | 11774 ft | 377 kts | 116° |
| 2026-05-08 19:58 | 48.88303 | 3.31095 | 12301 ft | 383 kts | 116° |
| 2026-05-08 19:59 | 48.87195 | 3.34789 | 12868 ft | 386 kts | 116° |
| 2026-05-08 19:59 | 48.86076 | 3.38516 | 13460 ft | 389 kts | 116° |
| 2026-05-08 19:59 | 48.84947 | 3.42270 | 14014 ft | 393 kts | 116° |
| 2026-05-08 19:59 | 48.83807 | 3.46052 | 14521 ft | 396 kts | 116° |
| 2026-05-08 20:00 | 48.82654 | 3.49871 | 15023 ft | 399 kts | 116° |
| 2026-05-08 20:00 | 48.81561 | 3.53760 | 15519 ft | 404 kts | 110° |
| 2026-05-08 20:00 | 48.80950 | 3.57932 | 16027 ft | 407 kts | 98° |
| 2026-05-08 20:00 | 48.80608 | 3.62206 | 16553 ft | 410 kts | 97° |
| 2026-05-08 20:01 | 48.80293 | 3.66522 | 17053 ft | 413 kts | 96° |
| 2026-05-08 20:01 | 48.79988 | 3.70858 | 17586 ft | 415 kts | 96° |
| 2026-05-08 20:01 | 48.79681 | 3.75225 | 18102 ft | 418 kts | 96° |
| 2026-05-08 20:01 | 48.79368 | 3.79627 | 18584 ft | 421 kts | 96° |
| 2026-05-08 20:02 | 48.79048 | 3.84053 | 19021 ft | 425 kts | 96° |
| 2026-05-08 20:02 | 48.78720 | 3.88529 | 19449 ft | 429 kts | 96° |
| 2026-05-08 20:02 | 48.78385 | 3.93041 | 19889 ft | 432 kts | 96° |
| 2026-05-08 20:02 | 48.78047 | 3.97557 | 20309 ft | 436 kts | 95° |
| 2026-05-08 20:03 | 48.77699 | 4.02178 | 20780 ft | 440 kts | 95° |
| 2026-05-08 20:03 | 48.77349 | 4.06805 | 21205 ft | 444 kts | 95° |
| 2026-05-08 20:03 | 48.76993 | 4.11473 | 21628 ft | 447 kts | 95° |
| 2026-05-08 20:03 | 48.76634 | 4.16169 | 22060 ft | 451 kts | 94° |
| 2026-05-08 20:04 | 48.76270 | 4.20912 | 22481 ft | 455 kts | 94° |
| 2026-05-08 20:04 | 48.75906 | 4.25621 | 22917 ft | 458 kts | 94° |
| 2026-05-08 20:04 | 48.75526 | 4.30505 | 23343 ft | 462 kts | 94° |
| 2026-05-08 20:04 | 48.75148 | 4.35352 | 23762 ft | 466 kts | 94° |
| 2026-05-08 20:05 | 48.74770 | 4.40167 | 24170 ft | 467 kts | 94° |
| 2026-05-08 20:05 | 48.74382 | 4.45066 | 24549 ft | 470 kts | 94° |
| 2026-05-08 20:05 | 48.73989 | 4.50002 | 24898 ft | 473 kts | 94° |
| 2026-05-08 20:05 | 48.73592 | 4.54962 | 25245 ft | 477 kts | 94° |
| 2026-05-08 20:06 | 48.73190 | 4.59964 | 25591 ft | 479 kts | 94° |
| 2026-05-08 20:06 | 48.72783 | 4.64990 | 25940 ft | 482 kts | 94° |
| 2026-05-08 20:06 | 48.72372 | 4.70046 | 26277 ft | 486 kts | 94° |
| 2026-05-08 20:06 | 48.71956 | 4.75138 | 26621 ft | 489 kts | 94° |
| 2026-05-08 20:07 | 48.71536 | 4.80262 | 26980 ft | 492 kts | 94° |
| 2026-05-08 20:07 | 48.71109 | 4.85429 | 27210 ft | 497 kts | 94° |
| 2026-05-08 20:07 | 48.70676 | 4.90641 | 27538 ft | 500 kts | 94° |
| 2026-05-08 20:07 | 48.70239 | 4.95879 | 27874 ft | 503 kts | 94° |
| 2026-05-08 20:08 | 48.69796 | 5.01144 | 28192 ft | 506 kts | 94° |
| 2026-05-08 20:08 | 48.69347 | 5.06445 | 28497 ft | 509 kts | 94° |
| 2026-05-08 20:08 | 48.68895 | 5.11761 | 28799 ft | 512 kts | 94° |
| 2026-05-08 20:08 | 48.68436 | 5.17131 | 29105 ft | 515 kts | 94° |
| 2026-05-08 20:09 | 48.67973 | 5.22520 | 29432 ft | 518 kts | 94° |
| 2026-05-08 20:09 | 48.67505 | 5.27946 | 29636 ft | 522 kts | 94° |
| 2026-05-08 20:09 | 48.67030 | 5.33415 | 29897 ft | 525 kts | 94° |
| 2026-05-08 20:09 | 48.66549 | 5.38907 | 30159 ft | 528 kts | 94° |
| 2026-05-08 20:10 | 48.66067 | 5.44388 | 30380 ft | 530 kts | 94° |
| 2026-05-08 20:10 | 48.65574 | 5.49958 | 30624 ft | 532 kts | 95° |
| 2026-05-08 20:10 | 48.65080 | 5.55506 | 30836 ft | 534 kts | 95° |
| 2026-05-08 20:10 | 48.64581 | 5.61068 | 31138 ft | 533 kts | 95° |
| 2026-05-08 20:11 | 48.64081 | 5.66618 | 31510 ft | 532 kts | 96° |
| 2026-05-08 20:11 | 48.63580 | 5.72157 | 31849 ft | 531 kts | 96° |
| 2026-05-08 20:11 | 48.63077 | 5.77684 | 32144 ft | 531 kts | 96° |
| 2026-05-08 20:11 | 48.62571 | 5.83207 | 32417 ft | 531 kts | 96° |
| 2026-05-08 20:12 | 48.62063 | 5.88733 | 32664 ft | 531 kts | 96° |
| 2026-05-08 20:12 | 48.61554 | 5.94247 | 32948 ft | 530 kts | 96° |
| 2026-05-08 20:12 | 48.61041 | 5.99766 | 33225 ft | 530 kts | 96° |
| 2026-05-08 20:12 | 48.60527 | 6.05269 | 33472 ft | 530 kts | 96° |
| 2026-05-08 20:13 | 48.60011 | 6.10776 | 33761 ft | 529 kts | 97° |
| 2026-05-08 20:13 | 48.59493 | 6.16261 | 34089 ft | 527 kts | 97° |
| 2026-05-08 20:13 | 48.58974 | 6.21729 | 34301 ft | 526 kts | 97° |
| 2026-05-08 20:13 | 48.58452 | 6.27199 | 34504 ft | 526 kts | 97° |
| 2026-05-08 20:14 | 48.57928 | 6.32656 | 34704 ft | 525 kts | 97° |
| 2026-05-08 20:14 | 48.57403 | 6.38108 | 34907 ft | 524 kts | 97° |
| 2026-05-08 20:14 | 48.56875 | 6.43549 | 35090 ft | 523 kts | 97° |
| 2026-05-08 20:14 | 48.56347 | 6.48975 | 35275 ft | 523 kts | 97° |
| 2026-05-08 20:15 | 48.55816 | 6.54407 | 35442 ft | 523 kts | 98° |
| 2026-05-08 20:15 | 48.55283 | 6.59830 | 35598 ft | 523 kts | 98° |
| 2026-05-08 20:15 | 48.54747 | 6.65253 | 35755 ft | 522 kts | 98° |
| 2026-05-08 20:15 | 48.54209 | 6.70670 | 35929 ft | 522 kts | 98° |
| 2026-05-08 20:16 | 48.53670 | 6.76073 | 36079 ft | 521 kts | 98° |
| 2026-05-08 20:16 | 48.53128 | 6.81478 | 36235 ft | 520 kts | 98° |
| 2026-05-08 20:16 | 48.52585 | 6.86862 | 36379 ft | 520 kts | 98° |
| 2026-05-08 20:16 | 48.52038 | 6.92261 | 36509 ft | 520 kts | 98° |
| 2026-05-08 20:17 | 48.51492 | 6.97628 | 36782 ft | 516 kts | 98° |
| 2026-05-08 20:17 | 48.50948 | 7.02954 | 37031 ft | 513 kts | 98° |
| 2026-05-08 20:17 | 48.49849 | 7.13630 | 37075 ft | 517 kts | 98° |
| 2026-05-08 20:18 | 48.48733 | 7.24370 | 37063 ft | 520 kts | 99° |
| 2026-05-08 20:18 | 48.47603 | 7.35139 | 37064 ft | 520 kts | 99° |
| 2026-05-08 20:19 | 48.46471 | 7.45824 | 37064 ft | 520 kts | 99° |
| 2026-05-08 20:19 | 48.45320 | 7.56591 | 37068 ft | 520 kts | 99° |
| 2026-05-08 20:20 | 48.44160 | 7.67350 | 37075 ft | 521 kts | 99° |
| 2026-05-08 20:20 | 48.42484 | 7.77929 | 37065 ft | 520 kts | 108° |
| 2026-05-08 20:21 | 48.40295 | 7.88266 | 37069 ft | 519 kts | 109° |
| 2026-05-08 20:21 | 48.38024 | 7.98523 | 37073 ft | 518 kts | 109° |
| 2026-05-08 20:22 | 48.35734 | 8.08808 | 37071 ft | 520 kts | 109° |
| 2026-05-08 20:22 | 48.33809 | 8.17466 | 37066 ft | 522 kts | 109° |
| 2026-05-08 20:23 | 48.31128 | 8.29498 | 37056 ft | 522 kts | 109° |
| 2026-05-08 20:23 | 48.28813 | 8.39837 | 37077 ft | 522 kts | 109° |
| 2026-05-08 20:24 | 48.26488 | 8.50166 | 37072 ft | 522 kts | 109° |
| 2026-05-08 20:24 | 48.24156 | 8.60477 | 37066 ft | 522 kts | 110° |
| 2026-05-08 20:25 | 48.21818 | 8.70765 | 37071 ft | 520 kts | 110° |
| 2026-05-08 20:25 | 48.19476 | 8.81017 | 37071 ft | 520 kts | 110° |
| 2026-05-08 20:26 | 48.17124 | 8.91271 | 37071 ft | 520 kts | 110° |
| 2026-05-08 20:26 | 48.14763 | 9.01509 | 37066 ft | 520 kts | 110° |
| 2026-05-08 20:27 | 48.12396 | 9.11728 | 37063 ft | 520 kts | 110° |
| 2026-05-08 20:27 | 48.10017 | 9.21945 | 37067 ft | 520 kts | 110° |
| 2026-05-08 20:28 | 48.07631 | 9.32147 | 37066 ft | 520 kts | 110° |
| 2026-05-08 20:28 | 48.05236 | 9.42341 | 37063 ft | 520 kts | 110° |
| 2026-05-08 20:29 | 48.02824 | 9.52516 | 37065 ft | 520 kts | 111° |
| 2026-05-08 20:29 | 47.99551 | 9.62098 | 37070 ft | 518 kts | 122° |
| 2026-05-08 20:30 | 47.95805 | 9.71279 | 37066 ft | 518 kts | 124° |
| 2026-05-08 20:30 | 47.91979 | 9.80378 | 37062 ft | 518 kts | 124° |
| 2026-05-08 20:31 | 47.88156 | 9.89459 | 37079 ft | 517 kts | 124° |
| 2026-05-08 20:31 | 47.84415 | 9.98598 | 37083 ft | 518 kts | 119° |
| 2026-05-08 20:32 | 47.81541 | 10.08440 | 37088 ft | 519 kts | 113° |
| 2026-05-08 20:32 | 47.78910 | 10.18436 | 37064 ft | 519 kts | 112° |
| 2026-05-08 20:33 | 47.76308 | 10.28459 | 37066 ft | 519 kts | 112° |
| 2026-05-08 20:33 | 47.73685 | 10.38458 | 37074 ft | 521 kts | 112° |
| 2026-05-08 20:34 | 47.71041 | 10.48442 | 37074 ft | 521 kts | 112° |
| 2026-05-08 20:35 | 47.67061 | 10.63365 | 37076 ft | 519 kts | 113° |
| 2026-05-08 20:35 | 47.64394 | 10.73311 | 37076 ft | 519 kts | 113° |
| 2026-05-08 20:36 | 47.61854 | 10.82748 | 37083 ft | 519 kts | 113° |
| 2026-05-08 20:36 | 47.59173 | 10.92666 | 37079 ft | 519 kts | 113° |
| 2026-05-08 20:37 | 47.56669 | 11.01894 | 37067 ft | 518 kts | 113° |
| 2026-05-08 20:37 | 47.53980 | 11.11766 | 37054 ft | 517 kts | 113° |
| 2026-05-08 20:38 | 47.51282 | 11.21626 | 37055 ft | 517 kts | 114° |
| 2026-05-08 20:38 | 47.48577 | 11.31473 | 37064 ft | 517 kts | 114° |
| 2026-05-08 20:39 | 47.45950 | 11.40996 | 37065 ft | 516 kts | 114° |
| 2026-05-08 20:39 | 47.43234 | 11.50794 | 37053 ft | 515 kts | 114° |
| 2026-05-08 20:40 | 47.40967 | 11.58936 | 37068 ft | 516 kts | 114° |
| 2026-05-08 20:40 | 47.37766 | 11.70407 | 37052 ft | 517 kts | 114° |
| 2026-05-08 20:41 | 47.35960 | 11.78808 | 37059 ft | 518 kts | 101° |
| 2026-05-08 20:41 | 47.34946 | 11.89321 | 37058 ft | 519 kts | 97° |
| 2026-05-08 20:42 | 47.34202 | 11.99906 | 37052 ft | 519 kts | 95° |
| 2026-05-08 20:42 | 47.33588 | 12.10507 | 37060 ft | 519 kts | 95° |
| 2026-05-08 20:43 | 47.32950 | 12.21098 | 37062 ft | 519 kts | 96° |
| 2026-05-08 20:43 | 47.32272 | 12.31685 | 37067 ft | 519 kts | 96° |
| 2026-05-08 20:44 | 47.31570 | 12.42261 | 37066 ft | 519 kts | 96° |
| 2026-05-08 20:44 | 47.30857 | 12.52856 | 37068 ft | 519 kts | 96° |
| 2026-05-08 20:45 | 47.30137 | 12.63404 | 37075 ft | 517 kts | 97° |
| 2026-05-08 20:45 | 47.29413 | 12.73929 | 37080 ft | 516 kts | 96° |
| 2026-05-08 20:46 | 47.28679 | 12.84445 | 37082 ft | 516 kts | 97° |
| 2026-05-08 20:46 | 47.27935 | 12.94963 | 37084 ft | 516 kts | 97° |
| 2026-05-08 20:47 | 47.27188 | 13.05387 | 37088 ft | 515 kts | 97° |
| 2026-05-08 20:47 | 47.26426 | 13.15862 | 37083 ft | 514 kts | 97° |
| 2026-05-08 20:48 | 47.25657 | 13.26328 | 37086 ft | 514 kts | 97° |
| 2026-05-08 20:48 | 47.24877 | 13.36801 | 37080 ft | 515 kts | 97° |
| 2026-05-08 20:49 | 47.24086 | 13.47266 | 37093 ft | 514 kts | 98° |
| 2026-05-08 20:49 | 47.23288 | 13.57712 | 37092 ft | 514 kts | 98° |
| 2026-05-08 20:50 | 47.22480 | 13.68164 | 37097 ft | 514 kts | 98° |
| 2026-05-08 20:50 | 47.21662 | 13.78597 | 37090 ft | 513 kts | 98° |
| 2026-05-08 20:51 | 47.20836 | 13.89017 | 37097 ft | 513 kts | 98° |
| 2026-05-08 20:51 | 47.19997 | 13.99429 | 37099 ft | 513 kts | 98° |
| 2026-05-08 20:52 | 47.19156 | 14.09832 | 37096 ft | 512 kts | 98° |
| 2026-05-08 20:52 | 47.18306 | 14.20231 | 37086 ft | 512 kts | 98° |
| 2026-05-08 20:53 | 47.17448 | 14.30603 | 37094 ft | 511 kts | 98° |
| 2026-05-08 20:53 | 47.16582 | 14.40975 | 37099 ft | 511 kts | 99° |
| 2026-05-08 20:54 | 47.15701 | 14.51340 | 37096 ft | 511 kts | 99° |
| 2026-05-08 20:54 | 47.14812 | 14.61695 | 37108 ft | 511 kts | 99° |
| 2026-05-08 20:55 | 47.13914 | 14.72049 | 37094 ft | 511 kts | 99° |
| 2026-05-08 20:55 | 47.13008 | 14.82393 | 37100 ft | 511 kts | 99° |
| 2026-05-08 20:56 | 47.12094 | 14.92723 | 37112 ft | 510 kts | 99° |
| 2026-05-08 20:56 | 47.11170 | 15.03058 | 37081 ft | 510 kts | 99° |
| 2026-05-08 20:57 | 47.10576 | 15.13420 | 37106 ft | 513 kts | 85° |
| 2026-05-08 20:57 | 47.11316 | 15.18536 | 37090 ft | 513 kts | 70° |
| 2026-05-08 20:57 | 47.12866 | 15.23251 | 37094 ft | 514 kts | 59° |
| 2026-05-08 20:57 | 47.14511 | 15.27896 | 37072 ft | 514 kts | 70° |
| 2026-05-08 20:58 | 47.15411 | 15.32887 | 37092 ft | 513 kts | 83° |
| 2026-05-08 20:58 | 47.15382 | 15.43289 | 37068 ft | 509 kts | 100° |
| 2026-05-08 20:59 | 47.14091 | 15.53507 | 37077 ft | 509 kts | 104° |
| 2026-05-08 20:59 | 47.12639 | 15.63684 | 37076 ft | 509 kts | 105° |
| 2026-05-08 21:00 | 47.10831 | 15.73709 | 37087 ft | 508 kts | 108° |
| 2026-05-08 21:00 | 47.08946 | 15.83702 | 37077 ft | 508 kts | 108° |
| 2026-05-08 21:01 | 47.07053 | 15.93707 | 37080 ft | 510 kts | 108° |
| 2026-05-08 21:01 | 47.05145 | 16.03716 | 37074 ft | 509 kts | 109° |
| 2026-05-08 21:02 | 47.03142 | 16.13681 | 37073 ft | 509 kts | 109° |
| 2026-05-08 21:02 | 47.01071 | 16.23590 | 37074 ft | 509 kts | 110° |
| 2026-05-08 21:03 | 46.98728 | 16.33358 | 37074 ft | 507 kts | 114° |
| 2026-05-08 21:03 | 46.96278 | 16.43048 | 37075 ft | 508 kts | 111° |
| 2026-05-08 21:04 | 46.94217 | 16.52956 | 37073 ft | 509 kts | 108° |
| 2026-05-08 21:04 | 46.92366 | 16.62970 | 37069 ft | 510 kts | 107° |
| 2026-05-08 21:05 | 46.90544 | 16.73012 | 37073 ft | 511 kts | 107° |
| 2026-05-08 21:05 | 46.88701 | 16.83041 | 37072 ft | 511 kts | 107° |
| 2026-05-08 21:06 | 46.86835 | 16.93055 | 37073 ft | 511 kts | 108° |
| 2026-05-08 21:06 | 46.84955 | 17.03076 | 37074 ft | 511 kts | 108° |
| 2026-05-08 21:07 | 46.83067 | 17.13086 | 37075 ft | 511 kts | 108° |
| 2026-05-08 21:07 | 46.81170 | 17.23089 | 37074 ft | 511 kts | 108° |
| 2026-05-08 21:08 | 46.79266 | 17.33083 | 37072 ft | 511 kts | 108° |
| 2026-05-08 21:08 | 46.77351 | 17.43072 | 37069 ft | 511 kts | 108° |
| 2026-05-08 21:09 | 46.75430 | 17.53050 | 37062 ft | 512 kts | 108° |
| 2026-05-08 21:09 | 46.73496 | 17.63038 | 37058 ft | 511 kts | 108° |
| 2026-05-08 21:10 | 46.71555 | 17.73013 | 37042 ft | 511 kts | 108° |
| 2026-05-08 21:10 | 46.69610 | 17.82963 | 37056 ft | 510 kts | 108° |
| 2026-05-08 21:11 | 46.67659 | 17.92885 | 37057 ft | 510 kts | 108° |
| 2026-05-08 21:11 | 46.65697 | 18.02810 | 37056 ft | 510 kts | 108° |
| 2026-05-08 21:12 | 46.63728 | 18.12718 | 37047 ft | 510 kts | 108° |
| 2026-05-08 21:12 | 46.61754 | 18.22609 | 37053 ft | 509 kts | 108° |
| 2026-05-08 21:13 | 46.59773 | 18.32482 | 37054 ft | 508 kts | 109° |
| 2026-05-08 21:13 | 46.57797 | 18.42279 | 37051 ft | 508 kts | 109° |
| 2026-05-08 21:14 | 46.55800 | 18.52129 | 37059 ft | 508 kts | 109° |
| 2026-05-08 21:14 | 46.53797 | 18.61967 | 37042 ft | 508 kts | 109° |
| 2026-05-08 21:15 | 46.51784 | 18.71800 | 37041 ft | 508 kts | 109° |
| 2026-05-08 21:15 | 46.49763 | 18.81625 | 37041 ft | 508 kts | 109° |
| 2026-05-08 21:16 | 46.47735 | 18.91438 | 37043 ft | 508 kts | 109° |
| 2026-05-08 21:16 | 46.45696 | 19.01252 | 37045 ft | 508 kts | 109° |
| 2026-05-08 21:17 | 46.43651 | 19.11050 | 37048 ft | 508 kts | 109° |
| 2026-05-08 21:17 | 46.41598 | 19.20841 | 37032 ft | 508 kts | 109° |
| 2026-05-08 21:18 | 46.39537 | 19.30622 | 37046 ft | 507 kts | 109° |
| 2026-05-08 21:18 | 46.37471 | 19.40377 | 37044 ft | 506 kts | 109° |
| 2026-05-08 21:19 | 46.35398 | 19.50119 | 37045 ft | 506 kts | 109° |
| 2026-05-08 21:19 | 46.33317 | 19.59853 | 37035 ft | 506 kts | 110° |
| 2026-05-08 21:20 | 46.31230 | 19.69569 | 37047 ft | 506 kts | 110° |
| 2026-05-08 21:20 | 46.29148 | 19.79218 | 37043 ft | 506 kts | 110° |
| 2026-05-08 21:21 | 46.27048 | 19.88905 | 37040 ft | 506 kts | 110° |
| 2026-05-08 21:21 | 46.24935 | 19.98606 | 37042 ft | 506 kts | 110° |
| 2026-05-08 21:22 | 46.22815 | 20.08292 | 37043 ft | 506 kts | 110° |
| 2026-05-08 21:22 | 46.20689 | 20.17966 | 37047 ft | 505 kts | 110° |
| 2026-05-08 21:23 | 46.18554 | 20.27634 | 37044 ft | 505 kts | 110° |
| 2026-05-08 21:23 | 46.16412 | 20.37284 | 37042 ft | 504 kts | 110° |
| 2026-05-08 21:24 | 46.14181 | 20.46864 | 37045 ft | 503 kts | 113° |
| 2026-05-08 21:24 | 46.11674 | 20.56265 | 37045 ft | 503 kts | 114° |
| 2026-05-08 21:25 | 46.09135 | 20.65653 | 37043 ft | 503 kts | 114° |
| 2026-05-08 21:25 | 46.06632 | 20.75052 | 37042 ft | 502 kts | 113° |
| 2026-05-08 21:26 | 46.04147 | 20.84450 | 37044 ft | 502 kts | 113° |
| 2026-05-08 21:26 | 46.02082 | 20.92245 | 37042 ft | 502 kts | 113° |
| 2026-05-08 21:27 | 45.99586 | 21.01630 | 37042 ft | 502 kts | 113° |
| 2026-05-08 21:27 | 45.97082 | 21.10997 | 37029 ft | 502 kts | 113° |
| 2026-05-08 21:28 | 45.94571 | 21.20357 | 37025 ft | 502 kts | 113° |
| 2026-05-08 21:28 | 45.92052 | 21.29706 | 37022 ft | 502 kts | 113° |
| 2026-05-08 21:29 | 45.89525 | 21.39048 | 37009 ft | 502 kts | 113° |
| 2026-05-08 21:29 | 45.86990 | 21.48382 | 37025 ft | 502 kts | 113° |
| 2026-05-08 21:30 | 45.84450 | 21.57701 | 37037 ft | 502 kts | 114° |
| 2026-05-08 21:30 | 45.81903 | 21.67009 | 37041 ft | 502 kts | 114° |
| 2026-05-08 21:31 | 45.79349 | 21.76308 | 37043 ft | 502 kts | 114° |
| 2026-05-08 21:31 | 45.76786 | 21.85599 | 37040 ft | 501 kts | 114° |
| 2026-05-08 21:32 | 45.74221 | 21.94865 | 37042 ft | 501 kts | 114° |
| 2026-05-08 21:32 | 45.71644 | 22.04140 | 37039 ft | 501 kts | 114° |
| 2026-05-08 21:33 | 45.69062 | 22.13393 | 37039 ft | 501 kts | 114° |
| 2026-05-08 21:33 | 45.66475 | 22.22634 | 37046 ft | 501 kts | 114° |
| 2026-05-08 21:34 | 45.63877 | 22.31876 | 37050 ft | 501 kts | 114° |
| 2026-05-08 21:34 | 45.61272 | 22.41105 | 37049 ft | 501 kts | 114° |
| 2026-05-08 21:35 | 45.58663 | 22.50315 | 37052 ft | 500 kts | 114° |
| 2026-05-08 21:35 | 45.56051 | 22.59504 | 37059 ft | 500 kts | 114° |
| 2026-05-08 21:36 | 45.53432 | 22.68681 | 37062 ft | 499 kts | 114° |
| 2026-05-08 21:36 | 45.50805 | 22.77851 | 37053 ft | 499 kts | 114° |
| 2026-05-08 21:37 | 45.48191 | 22.86945 | 37065 ft | 499 kts | 114° |
| 2026-05-08 21:37 | 45.45552 | 22.96090 | 37063 ft | 499 kts | 114° |
| 2026-05-08 21:38 | 45.42908 | 23.05220 | 37062 ft | 499 kts | 114° |
| 2026-05-08 21:38 | 45.40257 | 23.14339 | 37051 ft | 498 kts | 114° |
| 2026-05-08 21:39 | 45.37604 | 23.23435 | 37057 ft | 497 kts | 114° |
| 2026-05-08 21:39 | 45.34947 | 23.32506 | 37054 ft | 497 kts | 114° |
| 2026-05-08 21:40 | 45.32282 | 23.41577 | 37055 ft | 497 kts | 114° |
| 2026-05-08 21:40 | 45.29609 | 23.50636 | 37050 ft | 497 kts | 114° |
| 2026-05-08 21:41 | 45.25589 | 23.64201 | 37046 ft | 497 kts | 114° |
| 2026-05-08 21:41 | 45.22901 | 23.73233 | 37046 ft | 497 kts | 114° |
| 2026-05-08 21:42 | 45.20204 | 23.82260 | 37058 ft | 496 kts | 114° |
| 2026-05-08 21:42 | 45.17507 | 23.91259 | 37037 ft | 496 kts | 114° |
| 2026-05-08 21:43 | 45.14802 | 24.00250 | 37053 ft | 496 kts | 114° |
| 2026-05-08 21:43 | 45.12091 | 24.09228 | 37051 ft | 496 kts | 115° |
| 2026-05-08 21:44 | 45.09375 | 24.18192 | 37040 ft | 495 kts | 115° |
| 2026-05-08 21:44 | 45.06657 | 24.27131 | 37039 ft | 494 kts | 115° |
| 2026-05-08 21:45 | 45.03934 | 24.36054 | 37036 ft | 494 kts | 115° |
| 2026-05-08 21:45 | 45.01206 | 24.44965 | 37031 ft | 494 kts | 115° |
| 2026-05-08 21:46 | 44.98473 | 24.53859 | 37036 ft | 493 kts | 115° |
| 2026-05-08 21:46 | 44.95735 | 24.62738 | 37033 ft | 493 kts | 115° |
| 2026-05-08 21:47 | 44.93011 | 24.71542 | 37033 ft | 493 kts | 115° |
| 2026-05-08 21:47 | 44.90262 | 24.80395 | 37033 ft | 492 kts | 115° |
| 2026-05-08 21:48 | 44.87509 | 24.89232 | 37035 ft | 492 kts | 115° |
| 2026-05-08 21:48 | 44.84751 | 24.98053 | 37035 ft | 492 kts | 115° |
| 2026-05-08 21:49 | 44.81987 | 25.06865 | 37033 ft | 492 kts | 115° |
| 2026-05-08 21:49 | 44.79216 | 25.15669 | 37035 ft | 491 kts | 115° |
| 2026-05-08 21:50 | 44.76442 | 25.24454 | 37033 ft | 491 kts | 115° |
| 2026-05-08 21:50 | 44.73660 | 25.33232 | 37035 ft | 491 kts | 115° |
| 2026-05-08 21:51 | 44.70871 | 25.42002 | 37028 ft | 491 kts | 115° |
| 2026-05-08 21:51 | 44.68074 | 25.50769 | 37034 ft | 492 kts | 115° |
| 2026-05-08 21:52 | 44.65268 | 25.59536 | 37034 ft | 492 kts | 115° |
| 2026-05-08 21:52 | 44.62456 | 25.68291 | 37035 ft | 492 kts | 115° |
| 2026-05-08 21:53 | 44.59636 | 25.77043 | 37037 ft | 492 kts | 116° |
| 2026-05-08 21:53 | 44.56812 | 25.85775 | 37043 ft | 491 kts | 115° |
| 2026-05-08 21:54 | 44.53984 | 25.94490 | 37047 ft | 491 kts | 115° |
| 2026-05-08 21:54 | 44.51151 | 26.03194 | 37048 ft | 491 kts | 116° |
| 2026-05-08 21:55 | 44.48310 | 26.11893 | 37049 ft | 491 kts | 116° |
| 2026-05-08 21:56 | 44.44039 | 26.24921 | 37046 ft | 491 kts | 116° |
| 2026-05-08 21:56 | 44.41180 | 26.33602 | 37020 ft | 491 kts | 116° |
| 2026-05-08 21:57 | 44.38318 | 26.42265 | 37019 ft | 491 kts | 116° |
| 2026-05-08 21:57 | 44.35447 | 26.50928 | 37020 ft | 491 kts | 116° |
| 2026-05-08 21:58 | 44.32571 | 26.59580 | 37023 ft | 491 kts | 116° |
| 2026-05-08 21:58 | 44.29689 | 26.68220 | 37026 ft | 491 kts | 116° |
| 2026-05-08 21:59 | 44.26799 | 26.76853 | 37025 ft | 491 kts | 116° |
| 2026-05-08 21:59 | 44.23905 | 26.85475 | 37023 ft | 491 kts | 116° |
| 2026-05-08 22:00 | 44.21066 | 26.93903 | 37030 ft | 491 kts | 116° |
| 2026-05-08 22:00 | 44.18158 | 27.02510 | 37034 ft | 491 kts | 116° |
| 2026-05-08 22:01 | 44.15242 | 27.11112 | 37038 ft | 491 kts | 116° |
| 2026-05-08 22:01 | 44.12318 | 27.19710 | 37035 ft | 491 kts | 116° |
| 2026-05-08 22:02 | 44.09388 | 27.28298 | 37038 ft | 491 kts | 116° |
| 2026-05-08 22:02 | 44.06451 | 27.36879 | 37037 ft | 492 kts | 117° |
| 2026-05-08 22:03 | 44.03505 | 27.45460 | 37037 ft | 492 kts | 117° |
| 2026-05-08 22:03 | 44.00521 | 27.54014 | 37043 ft | 492 kts | 118° |
| 2026-05-08 22:04 | 43.97249 | 27.62340 | 37042 ft | 491 kts | 121° |
| 2026-05-08 22:04 | 43.93898 | 27.70604 | 37048 ft | 491 kts | 121° |
| 2026-05-08 22:05 | 43.90582 | 27.78886 | 37065 ft | 491 kts | 120° |
| 2026-05-08 22:05 | 43.87286 | 27.87187 | 37053 ft | 491 kts | 120° |
| 2026-05-08 22:06 | 43.83993 | 27.95482 | 37063 ft | 491 kts | 120° |
| 2026-05-08 22:06 | 43.80695 | 28.03763 | 37054 ft | 491 kts | 120° |
| 2026-05-08 22:07 | 43.77407 | 28.11989 | 37071 ft | 492 kts | 120° |
| 2026-05-08 22:07 | 43.74091 | 28.20259 | 37072 ft | 492 kts | 120° |
| 2026-05-08 22:08 | 43.70764 | 28.28532 | 37074 ft | 492 kts | 120° |
| 2026-05-08 22:08 | 43.67432 | 28.36796 | 37064 ft | 492 kts | 120° |
| 2026-05-08 22:09 | 43.64096 | 28.45046 | 37066 ft | 492 kts | 121° |
| 2026-05-08 22:09 | 43.60748 | 28.53299 | 37070 ft | 493 kts | 121° |
| 2026-05-08 22:10 | 43.57394 | 28.61547 | 37068 ft | 493 kts | 121° |
| 2026-05-08 22:10 | 43.54035 | 28.69781 | 37070 ft | 493 kts | 121° |
| 2026-05-08 22:11 | 43.50875 | 28.77506 | 37068 ft | 493 kts | 121° |
| 2026-05-08 22:11 | 43.47501 | 28.85731 | 37072 ft | 494 kts | 121° |
| 2026-05-08 22:12 | 43.44116 | 28.93959 | 37070 ft | 494 kts | 121° |
| 2026-05-08 22:12 | 43.40727 | 29.02174 | 37069 ft | 494 kts | 121° |
| 2026-05-08 22:13 | 43.37905 | 29.08995 | 37072 ft | 494 kts | 121° |
| 2026-05-08 22:13 | 43.34500 | 29.17206 | 37075 ft | 495 kts | 121° |
| 2026-05-08 22:14 | 43.31088 | 29.25411 | 37075 ft | 495 kts | 121° |
| 2026-05-08 22:14 | 43.27671 | 29.33602 | 37070 ft | 495 kts | 121° |
| 2026-05-08 22:15 | 43.24241 | 29.41803 | 37079 ft | 496 kts | 121° |
| 2026-05-08 22:15 | 43.20803 | 29.49999 | 37080 ft | 496 kts | 121° |
| 2026-05-08 22:16 | 43.17364 | 29.58176 | 37080 ft | 495 kts | 121° |
| 2026-05-08 22:16 | 43.13917 | 29.66348 | 37083 ft | 495 kts | 121° |
| 2026-05-08 22:17 | 43.10466 | 29.74504 | 37083 ft | 495 kts | 121° |
| 2026-05-08 22:17 | 43.07011 | 29.82649 | 37083 ft | 495 kts | 122° |
| 2026-05-08 22:18 | 43.03550 | 29.90784 | 37079 ft | 495 kts | 121° |
| 2026-05-08 22:18 | 43.00067 | 29.98948 | 37085 ft | 498 kts | 122° |
| 2026-05-08 22:19 | 42.96572 | 30.07120 | 37086 ft | 498 kts | 122° |
| 2026-05-08 22:19 | 42.93070 | 30.15283 | 37086 ft | 498 kts | 122° |
| 2026-05-08 22:20 | 42.89560 | 30.23444 | 37087 ft | 499 kts | 122° |
| 2026-05-08 22:20 | 42.86039 | 30.31605 | 37088 ft | 499 kts | 122° |
| 2026-05-08 22:21 | 42.82515 | 30.39752 | 37091 ft | 499 kts | 122° |
| 2026-05-08 22:21 | 42.79003 | 30.47847 | 37093 ft | 500 kts | 122° |
| 2026-05-08 22:22 | 42.75474 | 30.55999 | 37096 ft | 501 kts | 120° |
| 2026-05-08 22:22 | 42.72895 | 30.64796 | 37094 ft | 502 kts | 107° |
| 2026-05-08 22:23 | 42.71023 | 30.73942 | 37088 ft | 502 kts | 105° |
| 2026-05-08 22:23 | 42.69258 | 30.83141 | 37097 ft | 503 kts | 105° |
| 2026-05-08 22:24 | 42.67480 | 30.92330 | 37097 ft | 503 kts | 105° |
| 2026-05-08 22:24 | 42.65674 | 31.01512 | 37097 ft | 503 kts | 105° |
| 2026-05-08 22:25 | 42.63852 | 31.10686 | 37098 ft | 503 kts | 105° |
| 2026-05-08 22:25 | 42.62020 | 31.19857 | 37102 ft | 503 kts | 105° |
| 2026-05-08 22:26 | 42.60181 | 31.29029 | 37104 ft | 503 kts | 105° |
| 2026-05-08 22:26 | 42.58337 | 31.38189 | 37102 ft | 503 kts | 105° |
| 2026-05-08 22:27 | 42.56483 | 31.47357 | 37105 ft | 504 kts | 105° |
| 2026-05-08 22:27 | 42.54621 | 31.56517 | 37102 ft | 504 kts | 105° |
| 2026-05-08 22:28 | 42.52751 | 31.65680 | 37102 ft | 504 kts | 105° |
| 2026-05-08 22:28 | 42.50873 | 31.74838 | 37101 ft | 504 kts | 105° |
| 2026-05-08 22:29 | 42.48988 | 31.83992 | 37103 ft | 505 kts | 105° |
| 2026-05-08 22:29 | 42.47095 | 31.93144 | 37102 ft | 505 kts | 105° |
| 2026-05-08 22:30 | 42.45194 | 32.02294 | 37097 ft | 505 kts | 105° |
| 2026-05-08 22:30 | 42.43283 | 32.11446 | 37104 ft | 506 kts | 105° |
| 2026-05-08 22:31 | 42.41371 | 32.20570 | 37101 ft | 507 kts | 105° |
| 2026-05-08 22:31 | 42.39439 | 32.29746 | 37097 ft | 507 kts | 105° |
| 2026-05-08 22:32 | 42.37500 | 32.38916 | 37098 ft | 507 kts | 105° |
| 2026-05-08 22:32 | 42.35546 | 32.48114 | 37100 ft | 509 kts | 105° |
| 2026-05-08 22:33 | 42.33632 | 32.57331 | 37094 ft | 509 kts | 102° |
| 2026-05-08 22:33 | 42.32397 | 32.66748 | 37097 ft | 509 kts | 98° |
| 2026-05-08 22:34 | 42.31322 | 32.76194 | 37100 ft | 509 kts | 98° |
| 2026-05-08 22:34 | 42.30266 | 32.85646 | 37099 ft | 509 kts | 98° |
| 2026-05-08 22:35 | 42.29193 | 32.95092 | 37096 ft | 509 kts | 98° |
| 2026-05-08 22:35 | 42.28105 | 33.04527 | 37097 ft | 509 kts | 98° |
| 2026-05-08 22:36 | 42.27006 | 33.13967 | 37100 ft | 509 kts | 98° |
| 2026-05-08 22:36 | 42.25897 | 33.23410 | 37104 ft | 509 kts | 98° |
| 2026-05-08 22:37 | 42.24790 | 33.32779 | 37103 ft | 509 kts | 98° |
| 2026-05-08 22:37 | 42.23666 | 33.42226 | 37108 ft | 510 kts | 98° |
| 2026-05-08 22:38 | 42.22532 | 33.51697 | 37103 ft | 512 kts | 98° |
| 2026-05-08 22:38 | 42.21385 | 33.61194 | 37102 ft | 513 kts | 98° |
| 2026-05-08 22:39 | 42.20232 | 33.70683 | 37105 ft | 513 kts | 98° |
| 2026-05-08 22:39 | 42.19070 | 33.80170 | 37106 ft | 513 kts | 98° |
| 2026-05-08 22:40 | 42.17903 | 33.89672 | 37105 ft | 514 kts | 98° |
| 2026-05-08 22:40 | 42.16722 | 33.99181 | 37110 ft | 514 kts | 98° |
| 2026-05-08 22:41 | 42.15531 | 34.08689 | 37113 ft | 514 kts | 98° |
| 2026-05-08 22:41 | 42.14335 | 34.18189 | 37110 ft | 515 kts | 98° |
| 2026-05-08 22:42 | 42.13130 | 34.27705 | 37112 ft | 516 kts | 98° |
| 2026-05-08 22:42 | 42.11915 | 34.37225 | 37116 ft | 515 kts | 98° |
| 2026-05-08 22:43 | 42.10693 | 34.46721 | 37116 ft | 515 kts | 98° |
| 2026-05-08 22:43 | 42.09391 | 34.56208 | 37116 ft | 515 kts | 99° |
| 2026-05-08 22:44 | 42.08055 | 34.65690 | 37122 ft | 516 kts | 99° |
| 2026-05-08 22:44 | 42.06729 | 34.75111 | 37121 ft | 516 kts | 99° |
| 2026-05-08 22:45 | 42.05395 | 34.84594 | 37132 ft | 516 kts | 99° |
| 2026-05-08 22:45 | 42.04093 | 34.94088 | 37123 ft | 516 kts | 98° |
| 2026-05-08 22:46 | 42.02830 | 35.03594 | 37124 ft | 516 kts | 98° |
| 2026-05-08 22:46 | 42.02013 | 35.13163 | 37124 ft | 515 kts | 92° |
| 2026-05-08 22:47 | 42.01479 | 35.22761 | 37131 ft | 515 kts | 92° |
| 2026-05-08 22:47 | 42.00980 | 35.32358 | 37132 ft | 514 kts | 92° |
| 2026-05-08 22:48 | 42.00470 | 35.41950 | 37133 ft | 514 kts | 92° |
| 2026-05-08 22:48 | 41.99943 | 35.51534 | 37133 ft | 514 kts | 92° |
| 2026-05-08 22:49 | 41.99404 | 35.61124 | 37130 ft | 514 kts | 92° |
| 2026-05-08 22:49 | 41.98582 | 35.75501 | 37126 ft | 514 kts | 92° |
| 2026-05-08 22:50 | 41.98023 | 35.85084 | 37128 ft | 515 kts | 92° |
| 2026-05-08 22:50 | 41.97457 | 35.94673 | 37153 ft | 515 kts | 92° |
| 2026-05-08 22:51 | 41.96883 | 36.04242 | 37137 ft | 513 kts | 92° |
| 2026-05-08 22:51 | 41.96303 | 36.13792 | 37141 ft | 513 kts | 92° |
| 2026-05-08 22:52 | 41.95714 | 36.23348 | 37143 ft | 513 kts | 92° |
| 2026-05-08 22:52 | 41.95118 | 36.32896 | 37144 ft | 513 kts | 92° |
| 2026-05-08 22:53 | 41.94514 | 36.42441 | 37144 ft | 513 kts | 92° |
| 2026-05-08 22:53 | 41.93906 | 36.51924 | 37146 ft | 513 kts | 93° |
| 2026-05-08 22:54 | 41.93286 | 36.61470 | 37147 ft | 513 kts | 93° |
| 2026-05-08 22:54 | 41.92658 | 36.71013 | 37152 ft | 512 kts | 93° |
| 2026-05-08 22:55 | 41.92024 | 36.80532 | 37151 ft | 512 kts | 93° |
| 2026-05-08 22:55 | 41.91381 | 36.90050 | 37153 ft | 512 kts | 93° |
| 2026-05-08 22:56 | 41.90732 | 36.99564 | 37154 ft | 512 kts | 93° |
| 2026-05-08 22:56 | 41.90139 | 37.09089 | 37160 ft | 511 kts | 90° |
| 2026-05-08 22:57 | 41.90020 | 37.18618 | 37163 ft | 510 kts | 88° |
| 2026-05-08 22:57 | 41.89999 | 37.28146 | 37156 ft | 511 kts | 88° |
| 2026-05-08 22:58 | 41.89903 | 37.37673 | 37156 ft | 510 kts | 89° |
| 2026-05-08 22:58 | 41.89752 | 37.47192 | 37159 ft | 510 kts | 89° |
| 2026-05-08 22:59 | 41.89581 | 37.56706 | 37160 ft | 510 kts | 89° |
| 2026-05-08 22:59 | 41.89404 | 37.66228 | 37162 ft | 510 kts | 89° |
| 2026-05-08 23:00 | 41.89253 | 37.74131 | 37164 ft | 510 kts | 89° |
| 2026-05-08 23:00 | 41.89064 | 37.83650 | 37167 ft | 510 kts | 89° |
| 2026-05-08 23:01 | 41.88836 | 37.94698 | 37170 ft | 509 kts | 89° |